Time;durP1;ratioP1;P1;durP2;ratioP2;P2;SDS_P1;SDS_P2;PMS_P1;PMS_P2;Temp;Humidity;BMP_temperature;BMP_pressure;BME280_temperature;BME280_humidity;BME280_pressure;Samples;Min_cycle;Max_cycle;Signal;HPM_P1;HPM_P2
2020/12/29 00:00:36;;;;;;;1.50;1.00;;;;;;;4.65;100.00;94716.09;5012137;28;20715;-75
2020/12/29 00:03:03;;;;;;;0.80;0.53;;;;;;;4.58;100.00;94715.44;5021454;23;20228;-71
2020/12/29 00:05:30;;;;;;;2.23;0.70;;;;;;;4.58;100.00;94712.81;5011926;28;20232;-72
2020/12/29 00:07:57;;;;;;;1.00;0.70;;;;;;;4.51;100.00;94708.75;5012015;28;20211;-72
2020/12/29 00:10:24;;;;;;;1.87;1.17;;;;;;;4.69;100.00;94711.94;5008219;28;20207;-71
2020/12/29 00:12:52;;;;;;;1.00;0.77;;;;;;;4.38;100.00;94704.66;4997259;28;20705;-71
2020/12/29 00:15:19;;;;;;;0.83;0.53;;;;;;;4.39;100.00;94702.78;5009864;28;20206;-72
2020/12/29 00:17:46;;;;;;;2.27;0.80;;;;;;;4.36;100.00;94704.06;5008118;28;20240;-71
2020/12/29 00:20:12;;;;;;;0.83;0.47;;;;;;;4.14;100.00;94697.16;5011567;28;20212;-71
2020/12/29 00:22:39;;;;;;;1.47;0.70;;;;;;;4.15;100.00;94694.28;5003088;28;20223;-70
2020/12/29 00:25:06;;;;;;;1.03;0.60;;;;;;;4.14;100.00;94695.31;5010744;28;20266;-71
2020/12/29 00:27:33;;;;;;;1.90;1.07;;;;;;;4.38;100.00;94704.66;5007497;28;20205;-71
2020/12/29 00:30:01;;;;;;;2.53;0.80;;;;;;;4.18;100.00;94693.81;5004690;28;20207;-71
2020/12/29 00:32:28;;;;;;;0.90;0.50;;;;;;;4.15;100.00;94699.53;5002872;28;20223;-71
2020/12/29 00:34:55;;;;;;;0.60;0.50;;;;;;;4.29;100.00;94700.81;5008815;28;20207;-71
2020/12/29 00:37:22;;;;;;;0.70;0.60;;;;;;;4.25;100.00;94697.06;4997305;28;20871;-71
2020/12/29 00:39:48;;;;;;;0.60;0.60;;;;;;;4.20;100.00;94709.38;5004270;28;20206;-71
2020/12/29 00:42:15;;;;;;;1.17;0.67;;;;;;;4.33;100.00;94703.75;4999884;28;20246;-71
2020/12/29 00:44:42;;;;;;;0.40;0.37;;;;;;;4.37;100.00;94715.44;5003895;28;20704;-71
2020/12/29 00:47:09;;;;;;;0.90;0.43;;;;;;;4.41;100.00;94706.78;5009006;28;20680;-71
2020/12/29 00:49:38;;;;;;;0.30;0.30;;;;;;;4.42;100.00;94711.00;5007574;28;20208;-71
2020/12/29 00:52:05;;;;;;;0.40;0.40;;;;;;;4.50;100.00;94710.59;4998433;28;20689;-72
2020/12/29 00:54:32;;;;;;;0.80;0.43;;;;;;;4.48;100.00;94720.59;5011047;28;20664;-72
2020/12/29 00:56:59;;;;;;;0.20;0.20;;;;;;;4.58;100.00;94725.22;5002480;28;20205;-72
2020/12/29 00:59:26;;;;;;;0.60;0.50;;;;;;;4.62;100.00;94724.50;5010134;28;20284;-70
2020/12/29 01:01:56;;;;;;;0.50;0.40;;;;;;;4.65;100.00;94718.72;5004954;28;20240;-71
2020/12/29 01:04:24;;;;;;;0.63;0.43;;;;;;;4.54;100.00;94727.56;5009779;28;20573;-71
2020/12/29 01:06:51;;;;;;;0.60;0.50;;;;;;;4.81;100.00;94741.66;5010166;28;20699;-70
2020/12/29 01:09:18;;;;;;;0.90;0.37;;;;;;;4.66;100.00;94743.28;5002945;28;20661;-71
2020/12/29 01:11:45;;;;;;;0.70;0.40;;;;;;;4.65;100.00;94737.22;5004936;28;20231;-71
2020/12/29 01:14:12;;;;;;;0.43;0.40;;;;;;;4.49;100.00;94735.41;4999536;28;20233;-71
2020/12/29 01:16:39;;;;;;;0.50;0.47;;;;;;;4.65;100.00;94731.13;4999689;28;20203;-71
2020/12/29 01:19:06;;;;;;;0.50;0.40;;;;;;;4.55;100.00;94734.44;5002481;28;20215;-72
2020/12/29 01:21:33;;;;;;;0.53;0.40;;;;;;;4.66;100.00;94735.34;5005755;28;20595;-71
2020/12/29 01:24:00;;;;;;;0.83;0.57;;;;;;;4.44;100.00;94734.53;5004572;28;20290;-72
2020/12/29 01:26:27;;;;;;;1.60;0.50;;;;;;;4.27;100.00;94726.63;5010774;28;20205;-72
2020/12/29 01:28:54;;;;;;;2.10;0.40;;;;;;;4.36;100.00;94737.59;5005767;28;20260;-72
2020/12/29 01:31:27;;;;;;;0.73;0.60;;;;;;;4.38;100.00;94736.31;5006114;28;20228;-72
2020/12/29 01:33:55;;;;;;;0.83;0.50;;;;;;;4.53;100.00;94741.78;5001956;28;20606;-73
2020/12/29 01:36:22;;;;;;;0.77;0.60;;;;;;;4.54;100.00;94755.78;5000117;28;20672;-73
2020/12/29 01:38:50;;;;;;;0.83;0.60;;;;;;;4.64;100.00;94759.38;5008626;28;20286;-73
2020/12/29 01:41:19;;;;;;;0.40;0.40;;;;;;;4.53;100.00;94756.84;5000311;28;20305;-72
2020/12/29 01:43:46;;;;;;;0.50;0.50;;;;;;;4.66;100.00;94759.13;5014883;28;20237;-72
2020/12/29 01:46:13;;;;;;;1.10;0.50;;;;;;;4.69;100.00;94754.19;5006262;28;20212;-73
2020/12/29 01:48:40;;;;;;;0.30;0.30;;;;;;;4.72;100.00;94755.53;5006373;28;20686;-73
2020/12/29 01:51:07;;;;;;;0.60;0.50;;;;;;;4.53;100.00;94754.19;5004632;28;20708;-72
2020/12/29 01:53:38;;;;;;;1.70;0.50;;;;;;;4.48;100.00;94752.28;5009335;28;20578;-73
2020/12/29 01:56:09;;;;;;;0.27;0.27;;;;;;;4.52;100.00;94745.47;4997880;28;20251;-73
2020/12/29 01:58:37;;;;;;;0.40;0.40;;;;;;;4.79;100.00;94749.03;5000831;28;20201;-73
2020/12/29 02:01:04;;;;;;;0.40;0.40;;;;;;;4.74;100.00;94748.97;5003531;28;20213;-73
2020/12/29 02:03:31;;;;;;;0.60;0.40;;;;;;;4.80;100.00;94749.81;4996380;28;20221;-74
2020/12/29 02:05:57;;;;;;;0.40;0.40;;;;;;;4.76;100.00;94748.69;5002853;28;20209;-74
2020/12/29 02:08:25;;;;;;;0.50;0.50;;;;;;;4.69;100.00;94751.53;4999046;28;20212;-74
2020/12/29 02:10:54;;;;;;;0.80;0.50;;;;;;;4.66;100.00;94754.66;5003705;28;20213;-72
2020/12/29 02:13:21;;;;;;;0.40;0.40;;;;;;;4.74;100.00;94750.78;4999733;28;20257;-72
2020/12/29 02:15:48;;;;;;;0.83;0.53;;;;;;;4.79;100.00;94753.50;5000339;28;20204;-72
2020/12/29 02:18:15;;;;;;;1.60;0.40;;;;;;;4.79;100.00;94754.31;4996436;28;20306;-72
2020/12/29 02:20:42;;;;;;;0.40;0.40;;;;;;;4.80;100.00;94755.91;5009378;28;20579;-73
2020/12/29 02:23:11;;;;;;;1.60;0.43;;;;;;;4.83;100.00;94754.63;4995593;28;20228;-73
2020/12/29 02:25:38;;;;;;;1.00;0.50;;;;;;;4.74;100.00;94762.16;5010860;28;20236;-72
2020/12/29 02:28:07;;;;;;;0.97;0.47;;;;;;;4.89;100.00;94756.28;5009763;28;20208;-73
2020/12/29 02:30:34;;;;;;;1.70;0.60;;;;;;;4.82;100.00;94766.22;5002159;28;20673;-73
2020/12/29 02:33:01;;;;;;;0.37;0.30;;;;;;;4.94;100.00;94764.28;4999903;28;20229;-72
2020/12/29 02:35:27;;;;;;;0.53;0.40;;;;;;;4.81;100.00;94775.19;5000795;28;20197;-72
2020/12/29 02:37:54;;;;;;;1.70;0.40;;;;;;;5.02;100.00;94780.50;5005037;28;20206;-74
2020/12/29 02:40:22;;;;;;;0.73;0.50;;;;;;;5.07;100.00;94783.19;5009276;28;20209;-72
2020/12/29 02:42:48;;;;;;;0.23;0.23;;;;;;;5.02;100.00;94788.41;5010529;28;20225;-73
2020/12/29 02:45:16;;;;;;;0.70;0.40;;;;;;;5.23;100.00;94798.19;5002618;28;20238;-72
2020/12/29 02:47:43;;;;;;;0.57;0.30;;;;;;;5.23;100.00;94798.19;4996718;28;20221;-73
2020/12/29 02:50:10;;;;;;;0.30;0.20;;;;;;;5.14;100.00;94797.00;5007328;28;20217;-72
2020/12/29 02:52:37;;;;;;;0.27;0.27;;;;;;;5.17;100.00;94801.00;5009684;28;20239;-74
2020/12/29 02:55:04;;;;;;;0.67;0.30;;;;;;;4.98;100.00;94805.00;5007928;28;20203;-74
2020/12/29 02:57:32;;;;;;;0.27;0.20;;;;;;;5.01;100.00;94807.16;5001167;28;20256;-74
2020/12/29 02:59:58;;;;;;;0.20;0.20;;;;;;;4.90;100.00;94808.88;5008143;28;20220;-74
2020/12/29 03:02:25;;;;;;;0.77;0.33;;;;;;;4.88;100.00;94804.88;5008810;28;20712;-71
2020/12/29 03:04:52;;;;;;;0.93;0.40;;;;;;;5.00;100.00;94811.66;4997012;28;20280;-73
2020/12/29 03:07:19;;;;;;;0.20;0.20;;;;;;;4.89;100.00;94812.56;5004731;28;20201;-73
2020/12/29 03:09:45;;;;;;;0.27;0.27;;;;;;;5.02;100.00;94814.06;4998263;28;20217;-73
2020/12/29 03:12:12;;;;;;;0.20;0.20;;;;;;;5.04;100.00;94823.34;5007859;28;20240;-73
2020/12/29 03:14:40;;;;;;;0.20;0.20;;;;;;;4.96;100.00;94825.56;5012846;28;20246;-73
2020/12/29 03:17:07;;;;;;;0.30;0.30;;;;;;;5.01;100.00;94834.38;5010628;28;20215;-74
2020/12/29 03:19:33;;;;;;;0.20;0.20;;;;;;;4.97;100.00;94829.84;5002736;28;20205;-73
2020/12/29 03:22:00;;;;;;;0.20;0.20;;;;;;;4.96;100.00;94836.94;5014192;28;20231;-73
2020/12/29 03:24:27;;;;;;;0.20;0.20;;;;;;;5.00;100.00;94835.44;4999121;28;20587;-73
2020/12/29 03:26:54;;;;;;;0.40;0.37;;;;;;;5.09;100.00;94841.91;5006123;28;20628;-72
2020/12/29 03:29:20;;;;;;;0.23;0.20;;;;;;;5.13;100.00;94844.84;4999930;28;20343;-74
2020/12/29 03:31:48;;;;;;;0.20;0.20;;;;;;;5.08;100.00;94858.78;5014124;28;20646;-74
2020/12/29 03:34:21;;;;;;;0.20;0.20;;;;;;;4.98;100.00;94860.50;4999794;28;20203;-74
2020/12/29 03:36:48;;;;;;;0.53;0.20;;;;;;;4.86;100.00;94865.06;5000710;28;20669;-74
2020/12/29 03:39:15;;;;;;;0.10;0.10;;;;;;;5.07;100.00;94866.97;4999867;28;20221;-72
2020/12/29 03:41:42;;;;;;;0.10;0.10;;;;;;;4.95;100.00;94869.69;5000864;28;20227;-75
2020/12/29 03:44:09;;;;;;;0.20;0.20;;;;;;;4.93;100.00;94876.28;5000321;28;20233;-72
2020/12/29 03:46:36;;;;;;;0.17;0.17;;;;;;;4.94;100.00;94870.75;5000156;28;20212;-73
2020/12/29 03:49:03;;;;;;;0.20;0.20;;;;;;;4.93;100.00;94879.69;5009853;28;20215;-73
2020/12/29 03:51:30;;;;;;;0.40;0.20;;;;;;;4.96;100.00;94878.41;5012821;28;20225;-73
2020/12/29 03:53:57;;;;;;;0.20;0.20;;;;;;;4.87;100.00;94885.94;5013858;28;20685;-72
2020/12/29 03:56:24;;;;;;;0.50;0.30;;;;;;;4.79;100.00;94891.66;5011623;28;20205;-73
2020/12/29 03:58:50;;;;;;;1.70;0.40;;;;;;;4.86;100.00;94880.91;5013328;28;20201;-74
2020/12/29 04:01:17;;;;;;;0.20;0.20;;;;;;;4.84;100.00;94883.81;5011259;28;20240;-74
2020/12/29 04:03:44;;;;;;;0.20;0.20;;;;;;;4.68;100.00;94881.16;5007458;28;20257;-72
2020/12/29 04:06:12;;;;;;;0.17;0.17;;;;;;;4.86;100.00;94887.00;5010890;28;20212;-72
2020/12/29 04:08:39;;;;;;;0.43;0.30;;;;;;;4.96;100.00;94883.69;5006908;28;20212;-72
2020/12/29 04:11:06;;;;;;;0.43;0.37;;;;;;;4.96;100.00;94894.25;5005254;28;20208;-72
2020/12/29 04:13:33;;;;;;;0.20;0.20;;;;;;;5.02;100.00;94888.81;5001092;28;20204;-72
2020/12/29 04:16:00;;;;;;;1.10;0.20;;;;;;;5.01;100.00;94896.97;5004549;28;20207;-72
2020/12/29 04:18:27;;;;;;;2.27;0.30;;;;;;;5.07;100.00;94893.41;5010780;28;20210;-73
2020/12/29 04:20:53;;;;;;;0.67;0.23;;;;;;;5.02;100.00;94898.59;5010582;28;20217;-73
2020/12/29 04:23:21;;;;;;;1.10;0.30;;;;;;;5.12;100.00;94896.88;5002748;28;20227;-73
2020/12/29 04:25:48;;;;;;;0.40;0.10;;;;;;;5.04;100.00;94894.69;5007769;28;20225;-74
2020/12/29 04:28:15;;;;;;;0.27;0.23;;;;;;;5.12;100.00;94899.53;5010059;28;20220;-74
2020/12/29 04:30:41;;;;;;;1.03;0.30;;;;;;;4.91;100.00;94897.63;4999908;28;20581;-74
2020/12/29 04:33:08;;;;;;;2.53;0.40;;;;;;;5.02;100.00;94902.03;5002457;28;20277;-72
2020/12/29 04:35:35;;;;;;;0.50;0.30;;;;;;;4.95;100.00;94906.69;5010415;28;20202;-74
2020/12/29 04:38:02;;;;;;;0.40;0.30;;;;;;;4.84;100.00;94898.84;5009845;28;20605;-74
2020/12/29 04:40:30;;;;;;;0.33;0.30;;;;;;;4.85;100.00;94906.53;5008198;28;20210;-74
2020/12/29 04:42:58;;;;;;;0.40;0.30;;;;;;;4.88;100.00;94921.88;5002915;28;20228;-74
2020/12/29 04:45:25;;;;;;;0.30;0.30;;;;;;;4.79;100.00;94914.59;5008770;28;20238;-72
2020/12/29 04:47:52;;;;;;;2.27;0.33;;;;;;;4.93;100.00;94929.88;5007229;28;20211;-72
2020/12/29 04:50:19;;;;;;;1.07;0.20;;;;;;;4.92;100.00;94936.22;5017086;28;20208;-73
2020/12/29 04:52:47;;;;;;;0.43;0.20;;;;;;;4.95;100.00;94943.66;5012369;28;20288;-73
2020/12/29 04:55:14;;;;;;;1.13;0.37;;;;;;;5.01;100.00;94936.59;5011113;28;20204;-71
2020/12/29 04:57:45;;;;;;;2.13;0.30;;;;;;;4.98;100.00;94939.75;5007602;28;20692;-72
2020/12/29 05:00:12;;;;;;;0.47;0.30;;;;;;;5.05;100.00;94933.25;4996744;28;20204;-72
2020/12/29 05:02:39;;;;;;;1.13;0.40;;;;;;;4.90;100.00;94948.06;5005989;28;20289;-72
2020/12/29 05:05:06;;;;;;;0.20;0.20;;;;;;;4.82;100.00;94938.69;5005812;28;20226;-72
2020/12/29 05:07:32;;;;;;;0.30;0.30;;;;;;;4.82;100.00;94941.34;5011260;28;20204;-73
2020/12/29 05:10:05;;;;;;;0.57;0.30;;;;;;;4.86;100.00;94941.66;5003192;28;20631;-73
2020/12/29 05:12:32;;;;;;;0.80;0.10;;;;;;;4.85;100.00;94946.16;4998756;28;20225;-72
2020/12/29 05:15:00;;;;;;;0.70;0.50;;;;;;;4.79;100.00;94955.03;5011961;28;20345;-72
2020/12/29 05:17:27;;;;;;;2.43;0.30;;;;;;;4.84;100.00;94941.09;5006549;28;20224;-72
2020/12/29 05:19:54;;;;;;;0.90;0.50;;;;;;;4.91;100.00;94955.75;5006749;28;20652;-74
2020/12/29 05:22:21;;;;;;;4.43;0.40;;;;;;;4.85;100.00;94962.00;5003327;28;20740;-72
2020/12/29 05:24:48;;;;;;;0.53;0.30;;;;;;;4.88;100.00;94968.66;4992988;28;20221;-73
2020/12/29 05:27:17;;;;;;;0.93;0.40;;;;;;;4.88;100.00;94966.00;5006982;28;20212;-73
2020/12/29 05:29:43;;;;;;;0.20;0.20;;;;;;;4.86;100.00;94979.44;5006948;28;20707;-73
2020/12/29 05:32:17;;;;;;;0.37;0.27;;;;;;;4.91;100.00;94974.25;5008244;28;20650;-73
2020/12/29 05:34:44;;;;;;;0.40;0.40;;;;;;;4.78;100.00;94974.53;5000422;28;20195;-71
2020/12/29 05:37:15;;;;;;;1.57;0.30;;;;;;;4.95;100.00;94987.78;5007639;28;20583;-73
2020/12/29 05:39:42;;;;;;;0.97;0.30;;;;;;;4.79;100.00;94976.16;5001060;28;20221;-73
2020/12/29 05:42:09;;;;;;;0.67;0.50;;;;;;;4.86;100.00;94982.09;5005665;28;20230;-72
2020/12/29 05:44:38;;;;;;;0.17;0.17;;;;;;;5.04;100.00;94987.16;5002464;28;20762;-73
2020/12/29 05:47:05;;;;;;;0.93;0.40;;;;;;;5.08;100.00;94990.91;5004855;28;20212;-72
2020/12/29 05:49:33;;;;;;;0.20;0.20;;;;;;;5.04;100.00;95003.00;5009690;28;20678;-72
2020/12/29 05:52:01;;;;;;;1.30;0.33;;;;;;;5.06;100.00;95010.69;5004285;28;20243;-72
2020/12/29 05:54:28;;;;;;;0.20;0.20;;;;;;;4.94;100.00;95007.31;5009600;28;20203;-72
2020/12/29 05:56:55;;;;;;;0.20;0.20;;;;;;;4.96;100.00;95005.22;5007878;28;20207;-73
2020/12/29 05:59:22;;;;;;;0.33;0.20;;;;;;;5.02;100.00;95009.56;5001745;28;20580;-73
2020/12/29 06:01:50;;;;;;;2.80;0.27;;;;;;;5.00;100.00;95016.91;5010664;28;20231;-72
2020/12/29 06:04:17;;;;;;;0.10;0.10;;;;;;;4.97;100.00;95014.78;5001068;28;20231;-72
2020/12/29 06:06:46;;;;;;;0.47;0.20;;;;;;;5.04;100.00;95005.66;5002998;28;20205;-74
2020/12/29 06:09:17;;;;;;;0.40;0.40;;;;;;;4.97;100.00;95033.28;5004529;28;20209;-73
2020/12/29 06:11:54;;;;;;;0.77;0.20;;;;;;;4.97;100.00;95031.41;4996525;28;20309;-73
2020/12/29 06:14:24;;;;;;;0.80;0.27;;;;;;;4.91;100.00;95040.28;4994919;28;20204;-73
2020/12/29 06:16:51;;;;;;;0.20;0.20;;;;;;;4.92;100.00;95027.91;5010428;28;20689;-72
2020/12/29 06:19:23;;;;;;;0.23;0.23;;;;;;;4.93;100.00;95040.84;5004866;28;20685;-72
2020/12/29 06:22:07;;;;;;;0.30;0.30;;;;;;;4.85;100.00;95053.63;5005556;28;20324;-72
2020/12/29 06:24:35;;;;;;;0.20;0.20;;;;;;;4.82;100.00;95056.78;4994182;28;20280;-72
2020/12/29 06:27:03;;;;;;;0.47;0.30;;;;;;;4.74;100.00;95062.44;4993217;28;20654;-74
2020/12/29 06:29:36;;;;;;;0.40;0.40;;;;;;;4.71;100.00;95074.25;4996675;28;20206;-73
2020/12/29 06:32:10;;;;;;;0.47;0.27;;;;;;;4.88;100.00;95095.44;5007776;28;20230;-74
2020/12/29 06:34:38;;;;;;;1.30;0.30;;;;;;;4.81;100.00;95082.38;5008399;28;20214;-72
2020/12/29 06:37:18;;;;;;;2.37;0.37;;;;;;;4.89;100.00;95089.94;4999998;28;20201;-72
2020/12/29 06:39:54;;;;;;;0.20;0.20;;;;;;;4.87;100.00;95102.56;5001476;28;20204;-72
2020/12/29 06:42:21;;;;;;;0.30;0.30;;;;;;;4.81;100.00;95111.44;5005905;28;20241;-72
2020/12/29 06:44:53;;;;;;;2.33;0.30;;;;;;;4.88;100.00;95117.38;5005629;28;20228;-72
2020/12/29 06:47:23;;;;;;;1.07;0.30;;;;;;;4.83;100.00;95127.84;5010172;28;20234;-72
2020/12/29 06:49:51;;;;;;;1.97;0.30;;;;;;;4.90;100.00;95130.34;5008897;28;20237;-73
2020/12/29 06:52:28;;;;;;;2.20;0.33;;;;;;;5.03;100.00;95143.28;5013944;28;20228;-73
2020/12/29 06:54:56;;;;;;;0.57;0.33;;;;;;;4.88;100.00;95145.63;5007823;28;20200;-73
2020/12/29 06:57:24;;;;;;;0.37;0.37;;;;;;;4.82;100.00;95150.00;5007757;28;20216;-73
2020/12/29 06:59:51;;;;;;;1.83;0.50;;;;;;;4.82;100.00;95152.66;4999424;28;20207;-73
2020/12/29 07:02:21;;;;;;;0.10;0.10;;;;;;;4.84;100.00;95168.28;5007918;28;20349;-72
2020/12/29 07:04:49;;;;;;;0.87;0.50;;;;;;;4.70;100.00;95180.13;5000858;28;20230;-72
2020/12/29 07:07:32;;;;;;;0.87;0.27;;;;;;;4.78;100.00;95188.47;5011887;28;20224;-74
2020/12/29 07:10:11;;;;;;;0.43;0.33;;;;;;;4.64;100.00;95194.25;5006941;28;20193;-75
2020/12/29 07:12:44;;;;;;;0.43;0.37;;;;;;;4.83;100.00;95211.56;5011354;28;20244;-73
2020/12/29 07:15:14;;;;;;;3.80;0.50;;;;;;;4.91;100.00;95227.88;5010457;28;20199;-74
2020/12/29 07:17:52;;;;;;;0.60;0.30;;;;;;;4.81;100.00;95225.00;5004238;28;20208;-73
2020/12/29 07:20:20;;;;;;;1.10;0.20;;;;;;;4.99;100.00;95243.38;5006993;28;20659;-72
2020/12/29 07:22:55;;;;;;;1.10;0.47;;;;;;;4.89;100.00;95256.38;5012149;28;20233;-72
2020/12/29 07:25:23;;;;;;;0.87;0.50;;;;;;;4.84;100.00;95260.72;5009347;28;20230;-73
2020/12/29 07:27:51;;;;;;;0.40;0.30;;;;;;;4.89;100.00;95269.56;5010435;28;20258;-74
2020/12/29 07:30:18;;;;;;;0.77;0.37;;;;;;;5.01;100.00;95262.41;5012898;28;20739;-80
2020/12/29 07:32:45;;;;;;;0.20;0.20;;;;;;;5.12;100.00;95274.78;5014006;28;20629;-75
2020/12/29 07:35:12;;;;;;;0.60;0.27;;;;;;;5.15;100.00;95282.28;5014651;28;20683;-80
2020/12/29 07:37:41;;;;;;;1.07;0.40;;;;;;;5.14;100.00;95295.72;5008835;28;20208;-75
2020/12/29 07:40:09;;;;;;;2.90;0.30;;;;;;;5.17;100.00;95301.34;5009989;28;20204;-73
2020/12/29 07:42:35;;;;;;;0.70;0.23;;;;;;;5.21;100.00;95305.13;5007977;28;20233;-75
2020/12/29 07:45:02;;;;;;;0.43;0.40;;;;;;;5.23;100.00;95320.75;5008734;28;20228;-75
2020/12/29 07:47:29;;;;;;;4.80;0.50;;;;;;;5.17;100.00;95314.53;5010579;28;20345;-77
2020/12/29 07:49:59;;;;;;;0.65;0.38;;;;;;;5.21;100.00;95331.56;5010474;28;20938;-79
2020/12/29 07:52:26;;;;;;;1.17;0.57;;;;;;;5.20;100.00;95337.06;5011316;28;20233;-76
2020/12/29 07:55:06;;;;;;;1.13;0.30;;;;;;;5.24;100.00;95343.50;5012604;28;20228;-76
2020/12/29 07:57:33;;;;;;;2.63;0.60;;;;;;;5.12;100.00;95345.38;5011452;28;20274;-73
2020/12/29 08:00:09;;;;;;;0.80;0.43;;;;;;;5.30;100.00;95353.13;5015010;28;20197;-75
2020/12/29 08:02:36;;;;;;;2.70;0.60;;;;;;;5.29;100.00;95349.69;5002983;28;20235;-75
2020/12/29 08:05:04;;;;;;;2.47;0.60;;;;;;;5.49;100.00;95362.53;5010324;28;20227;-73
2020/12/29 08:07:31;;;;;;;2.33;0.80;;;;;;;5.48;100.00;95366.22;5010974;28;20259;-74
2020/12/29 08:09:58;;;;;;;1.17;0.40;;;;;;;5.33;100.00;95371.19;5003333;28;20214;-74
2020/12/29 08:12:24;;;;;;;0.40;0.30;;;;;;;5.45;100.00;95375.44;5007858;28;20226;-75
2020/12/29 08:14:52;;;;;;;2.37;0.53;;;;;;;5.50;100.00;95382.66;5010677;28;20209;-74
2020/12/29 08:17:19;;;;;;;0.30;0.30;;;;;;;5.51;100.00;95390.34;5005744;28;20618;-80
2020/12/29 08:19:57;;;;;;;1.47;0.50;;;;;;;5.66;100.00;95392.50;5009219;28;20235;-74
2020/12/29 08:22:28;;;;;;;1.07;0.40;;;;;;;5.63;100.00;95399.06;5008890;28;20233;-73
2020/12/29 08:24:55;;;;;;;0.47;0.30;;;;;;;5.70;100.00;95412.97;5007342;28;20269;-75
2020/12/29 08:27:22;;;;;;;0.80;0.43;;;;;;;5.58;100.00;95409.53;5006220;28;20213;-74
2020/12/29 08:29:49;;;;;;;0.67;0.33;;;;;;;5.72;100.00;95410.06;5006891;28;20676;-72
2020/12/29 08:32:21;;;;;;;0.30;0.30;;;;;;;5.63;100.00;95412.28;5005934;28;20236;-76
2020/12/29 08:34:48;;;;;;;0.53;0.33;;;;;;;5.68;100.00;95441.50;5009326;28;20201;-77
2020/12/29 08:37:22;;;;;;;0.30;0.30;;;;;;;5.77;100.00;95437.44;5012433;28;20217;-74
2020/12/29 08:39:57;;;;;;;0.27;0.27;;;;;;;5.71;100.00;95443.69;4999680;28;20684;-72
2020/12/29 08:42:24;;;;;;;0.30;0.30;;;;;;;5.52;100.00;95446.69;5008504;28;20225;-71
2020/12/29 08:44:51;;;;;;;0.40;0.30;;;;;;;5.71;100.00;95464.03;5004728;28;20243;-72
2020/12/29 08:47:19;;;;;;;0.30;0.30;;;;;;;5.78;100.00;95473.44;5008430;28;20209;-72
2020/12/29 08:49:46;;;;;;;0.53;0.53;;;;;;;5.55;100.00;95476.13;5012285;28;20211;-73
2020/12/29 08:52:13;;;;;;;0.43;0.40;;;;;;;5.51;100.00;95484.75;5002932;28;20231;-74
2020/12/29 08:54:40;;;;;;;6.00;0.73;;;;;;;5.49;100.00;95498.19;5000826;28;20225;-74
2020/12/29 08:57:07;;;;;;;0.50;0.37;;;;;;;5.33;100.00;95504.19;5003237;28;20219;-76
2020/12/29 08:59:36;;;;;;;0.47;0.40;;;;;;;5.50;100.00;95514.88;5011204;28;20577;-73
2020/12/29 09:02:03;;;;;;;3.53;0.50;;;;;;;5.51;100.00;95522.59;5005231;28;20234;-74
2020/12/29 09:04:32;;;;;;;0.50;0.47;;;;;;;5.19;100.00;95525.78;5006850;28;20630;-74
2020/12/29 09:07:02;;;;;;;0.63;0.50;;;;;;;5.31;100.00;95534.53;5006202;28;20204;-72
2020/12/29 09:09:30;;;;;;;3.30;0.70;;;;;;;5.35;100.00;95536.50;5004737;28;20209;-72
2020/12/29 09:12:11;;;;;;;0.43;0.30;;;;;;;5.32;100.00;95552.00;5005643;28;20895;-73
2020/12/29 09:14:38;;;;;;;2.30;0.40;;;;;;;5.38;100.00;95565.13;5012054;28;20332;-71
2020/12/29 09:17:06;;;;;;;0.90;0.57;;;;;;;5.33;100.00;95570.28;5005209;28;20205;-73
2020/12/29 09:19:34;;;;;;;0.77;0.30;;;;;;;5.19;100.00;95582.09;5001627;28;20580;-71
2020/12/29 09:22:05;;;;;;;0.63;0.30;;;;;;;5.34;100.00;95593.03;5006604;28;20231;-79
2020/12/29 09:24:32;;;;;;;3.37;0.40;;;;;;;5.32;100.00;95596.94;5004082;28;20232;-78
2020/12/29 09:26:59;;;;;;;0.50;0.30;;;;;;;5.38;100.00;95602.13;5008078;28;20212;-76
2020/12/29 09:29:26;;;;;;;0.53;0.47;;;;;;;5.39;100.00;95609.03;5006507;28;20224;-71
2020/12/29 09:31:53;;;;;;;0.93;0.47;;;;;;;5.38;100.00;95615.34;5008303;28;20330;-76
2020/12/29 09:34:20;;;;;;;1.60;0.60;;;;;;;5.41;100.00;95620.19;5003594;28;20209;-71
2020/12/29 09:36:48;;;;;;;1.07;0.37;;;;;;;5.51;100.00;95628.38;5007388;28;20203;-74
2020/12/29 09:39:14;;;;;;;0.40;0.40;;;;;;;5.59;100.00;95625.38;5006976;28;20221;-75
2020/12/29 09:41:41;;;;;;;1.07;0.40;;;;;;;5.80;100.00;95632.84;5002067;28;20225;-76
2020/12/29 09:44:08;;;;;;;0.40;0.40;;;;;;;5.80;100.00;95635.47;4997992;28;20210;-75
2020/12/29 09:46:36;;;;;;;0.70;0.37;;;;;;;6.00;100.00;95645.72;5004706;28;20208;-76
2020/12/29 09:49:04;;;;;;;0.50;0.40;;;;;;;5.86;100.00;95657.56;5002437;28;20208;-74
2020/12/29 09:51:31;;;;;;;0.97;0.40;;;;;;;5.65;100.00;95661.53;5003086;28;20229;-72
2020/12/29 09:53:58;;;;;;;1.37;0.60;;;;;;;5.87;100.00;95675.03;5011186;28;20208;-72
2020/12/29 09:56:25;;;;;;;0.97;0.60;;;;;;;6.01;100.00;95676.44;5005593;28;20515;-75
2020/12/29 09:58:52;;;;;;;0.70;0.60;;;;;;;5.93;100.00;95684.72;4998414;28;20202;-77
2020/12/29 10:01:19;;;;;;;2.10;0.30;;;;;;;6.09;100.00;95692.00;5010310;28;20669;-75
2020/12/29 10:03:46;;;;;;;0.80;0.40;;;;;;;6.20;100.00;95694.63;5010012;28;20197;-75
2020/12/29 10:06:15;;;;;;;0.30;0.30;;;;;;;6.10;100.00;95696.25;5008300;28;20240;-75
2020/12/29 10:08:42;;;;;;;1.27;0.50;;;;;;;6.24;100.00;95703.75;5006042;28;20303;-76
2020/12/29 10:11:12;;;;;;;0.93;0.30;;;;;;;6.34;100.00;95706.63;5009307;28;20632;-76
2020/12/29 10:13:39;;;;;;;0.40;0.30;;;;;;;6.35;100.00;95718.81;5008636;28;20585;-76
2020/12/29 10:16:06;;;;;;;0.50;0.40;;;;;;;6.20;100.00;95726.41;5006167;28;20205;-77
2020/12/29 10:18:33;;;;;;;3.90;0.40;;;;;;;6.51;100.00;95726.09;5010960;28;20217;-74
2020/12/29 10:21:00;;;;;;;1.10;0.47;;;;;;;6.29;100.00;95725.03;5014516;28;20217;-74
2020/12/29 10:23:26;;;;;;;0.40;0.40;;;;;;;6.29;100.00;95734.84;5007177;28;20210;-74
2020/12/29 10:25:53;;;;;;;0.30;0.30;;;;;;;6.47;100.00;95740.00;5011696;28;20230;-74
2020/12/29 10:28:21;;;;;;;0.50;0.40;;;;;;;6.55;100.00;95745.78;5003149;28;20205;-75
2020/12/29 10:30:48;;;;;;;0.63;0.40;;;;;;;6.59;100.00;95738.97;5009439;28;20208;-73
2020/12/29 10:33:15;;;;;;;0.37;0.37;;;;;;;6.35;100.00;95729.41;5008052;28;20733;-74
2020/12/29 10:35:42;;;;;;;0.50;0.30;;;;;;;6.38;100.00;95749.34;5014326;28;20196;-74
2020/12/29 10:38:09;;;;;;;1.03;0.50;;;;;;;6.68;100.00;95750.03;5007487;28;20240;-74
2020/12/29 10:40:36;;;;;;;0.73;0.50;;;;;;;6.69;100.00;95759.59;5006549;28;20218;-74
2020/12/29 10:43:03;;;;;;;0.97;0.40;;;;;;;6.72;100.00;95762.59;5014476;28;20229;-75
2020/12/29 10:45:30;;;;;;;0.40;0.40;;;;;;;6.72;100.00;95767.91;5008981;28;20222;-75
2020/12/29 10:47:57;;;;;;;0.30;0.20;;;;;;;6.69;100.00;95776.31;5010876;28;20672;-75
2020/12/29 10:50:24;;;;;;;0.33;0.20;;;;;;;6.79;100.00;95784.47;5014829;28;20213;-75
2020/12/29 10:52:51;;;;;;;0.20;0.20;;;;;;;6.97;100.00;95792.31;5013637;28;20272;-75
2020/12/29 10:55:17;;;;;;;0.40;0.30;;;;;;;7.12;100.00;95789.19;5007680;28;20206;-76
2020/12/29 10:57:44;;;;;;;0.60;0.30;;;;;;;7.01;100.00;95782.84;5012568;28;20250;-76
2020/12/29 11:00:11;;;;;;;0.37;0.30;;;;;;;6.88;100.00;95788.41;5005625;28;20207;-74
2020/12/29 11:02:39;;;;;;;0.70;0.30;;;;;;;6.87;100.00;95791.28;5007046;28;20794;-72
2020/12/29 11:05:06;;;;;;;0.30;0.20;;;;;;;6.90;100.00;95806.72;5008218;28;20579;-73
2020/12/29 11:07:33;;;;;;;0.30;0.30;;;;;;;6.88;100.00;95800.84;5011179;28;20210;-76
2020/12/29 11:09:59;;;;;;;0.87;0.50;;;;;;;6.89;100.00;95795.31;5007658;28;20207;-76
2020/12/29 11:12:26;;;;;;;0.33;0.30;;;;;;;6.55;100.00;95809.34;5007552;28;20234;-76
2020/12/29 11:14:53;;;;;;;3.50;0.50;;;;;;;6.72;100.00;95812.97;5010317;28;20195;-74
2020/12/29 11:17:22;;;;;;;0.10;0.10;;;;;;;6.90;100.00;95807.53;5007576;28;20297;-76
2020/12/29 11:19:49;;;;;;;0.80;0.30;;;;;;;7.26;100.00;95812.56;5012973;28;20277;-74
2020/12/29 11:22:16;;;;;;;0.67;0.33;;;;;;;7.32;100.00;95819.56;5011053;28;20226;-74
2020/12/29 11:24:43;;;;;;;3.60;0.30;;;;;;;7.08;100.00;95812.72;5011645;28;20238;-76
2020/12/29 11:27:10;;;;;;;0.67;0.33;;;;;;;7.69;100.00;95809.44;4999668;28;20269;-78
2020/12/29 11:29:37;;;;;;;0.30;0.27;;;;;;;7.63;100.00;95816.53;5014112;28;20302;-72
2020/12/29 11:32:04;;;;;;;0.47;0.20;;;;;;;7.57;100.00;95812.13;5013460;28;20226;-76
2020/12/29 11:34:31;;;;;;;0.30;0.30;;;;;;;7.68;100.00;95813.97;5017159;28;20221;-77
2020/12/29 11:36:58;;;;;;;0.60;0.30;;;;;;;7.45;100.00;95821.97;5014281;28;20295;-76